createdAt,value
2018-06-10T00:00:10.377Z,23.17
2018-06-10T00:02:52.321Z,23.07
2018-06-10T00:05:34.847Z,23.01
2018-06-10T00:08:17.718Z,23.33
2018-06-10T00:10:58.251Z,23.55
2018-06-10T00:13:40.112Z,23.52
2018-06-10T00:16:20.360Z,23.45
2018-06-10T00:18:57.424Z,23.46
2018-06-10T00:21:38.472Z,23.48
2018-06-10T00:24:21.965Z,23.40
2018-06-10T00:26:59.862Z,23.50
2018-06-10T00:29:39.841Z,23.44
2018-06-10T00:35:14.212Z,22.73
2018-06-10T00:37:43.931Z,22.76
2018-06-10T00:40:13.529Z,22.92
2018-06-10T00:42:43.228Z,23.07
2018-06-10T00:45:12.910Z,22.98
2018-06-10T00:47:42.830Z,23.02
2018-06-10T00:50:12.710Z,23.11
2018-06-10T00:52:42.663Z,23.11
2018-06-10T00:55:12.801Z,23.10
2018-06-10T00:57:42.483Z,23.02
2018-06-10T01:00:13.151Z,23.10
2018-06-10T01:02:43.561Z,23.13
2018-06-10T01:05:13.428Z,23.03
2018-06-10T01:07:43.279Z,22.93
2018-06-10T01:10:13.373Z,22.68
2018-06-10T01:12:43.168Z,22.51
2018-06-10T01:15:13.478Z,22.63
2018-06-10T01:17:43.371Z,22.76
2018-06-10T01:20:13.151Z,22.86
2018-06-10T01:22:43.265Z,22.86
2018-06-10T01:25:13.387Z,22.77
2018-06-10T01:27:43.697Z,22.77
2018-06-10T01:30:13.576Z,22.72
2018-06-10T01:32:43.419Z,22.77
2018-06-10T01:35:13.685Z,22.77
2018-06-10T01:37:43.855Z,22.80
2018-06-10T01:40:13.730Z,22.66
2018-06-10T01:42:43.998Z,22.51
2018-06-10T01:45:14.259Z,22.30
2018-06-10T01:47:44.052Z,22.33
2018-06-10T01:50:13.889Z,22.34
2018-06-10T01:52:44.053Z,22.29
2018-06-10T01:55:14.161Z,22.51
2018-06-10T01:57:44.182Z,22.33
2018-06-10T02:00:14.232Z,22.26
2018-06-10T02:02:44.676Z,22.48
2018-06-10T02:05:14.436Z,22.26
2018-06-10T02:07:44.322Z,21.99
2018-06-10T02:10:15.331Z,21.98
2018-06-10T02:12:45.525Z,22.17
2018-06-10T02:15:15.539Z,22.29
2018-06-10T02:17:45.249Z,22.19
2018-06-10T02:20:15.234Z,22.06
2018-06-10T02:22:45.427Z,22.02
2018-06-10T02:25:15.261Z,21.93
2018-06-10T02:27:45.277Z,21.75
2018-06-10T02:30:15.280Z,21.63
2018-06-10T02:32:46.235Z,21.62
2018-06-10T02:35:16.366Z,21.88
2018-06-10T02:37:46.301Z,22.09
2018-06-10T02:40:16.213Z,22.49
2018-06-10T02:42:46.288Z,22.41
2018-06-10T02:45:15.708Z,22.21
2018-06-10T02:47:45.820Z,22.09
2018-06-10T02:50:15.662Z,21.89
2018-06-10T02:52:45.992Z,22.00
2018-06-10T02:55:16.736Z,22.07
2018-06-10T02:57:46.543Z,22.15
2018-06-10T03:00:16.521Z,22.23
2018-06-10T03:02:46.201Z,22.26
2018-06-10T03:05:16.085Z,22.32
2018-06-10T03:07:45.929Z,22.08
2018-06-10T03:10:16.174Z,21.83
2018-06-10T03:12:46.180Z,21.74
2018-06-10T03:15:16.409Z,21.78
2018-06-10T03:17:45.921Z,21.79
2018-06-10T03:20:16.590Z,21.92
2018-06-10T03:22:46.441Z,21.99
2018-06-10T03:25:16.657Z,21.91
2018-06-10T03:27:46.595Z,21.77
2018-06-10T03:30:16.646Z,21.88
2018-06-10T03:32:46.582Z,22.05
2018-06-10T03:35:16.936Z,21.94
2018-06-10T03:37:46.917Z,21.78
2018-06-10T03:40:17.157Z,21.81
2018-06-10T03:42:47.529Z,21.83
2018-06-10T03:45:17.409Z,21.85
2018-06-10T03:47:47.418Z,22.02
2018-06-10T03:50:17.282Z,22.27
2018-06-10T03:52:47.149Z,22.52
2018-06-10T03:55:17.433Z,22.90
2018-06-10T03:57:47.192Z,22.98
2018-06-10T04:00:17.294Z,23.04
2018-06-10T04:02:47.302Z,23.01
2018-06-10T04:05:17.556Z,22.94
2018-06-10T04:07:47.515Z,22.97
2018-06-10T04:10:17.559Z,22.99
2018-06-10T04:12:47.698Z,23.25
2018-06-10T04:15:17.666Z,23.42
2018-06-10T04:17:47.538Z,23.70
2018-06-10T04:20:17.931Z,23.81
2018-06-10T04:22:47.832Z,23.94
2018-06-10T04:25:17.785Z,24.09
2018-06-10T04:27:48.112Z,24.25
2018-06-10T04:30:17.921Z,24.39
2018-06-10T04:32:51.043Z,24.51
2018-06-10T04:35:20.811Z,24.63
2018-06-10T04:37:50.593Z,24.85
2018-06-10T04:40:20.504Z,24.93
2018-06-10T04:42:51.169Z,25.26
2018-06-10T04:45:21.111Z,25.32
2018-06-10T04:50:29.892Z,25.28
2018-06-10T04:52:59.700Z,25.90
2018-06-10T04:55:29.347Z,25.77
2018-06-10T04:57:59.085Z,25.59
2018-06-10T05:00:28.740Z,25.71
2018-06-10T05:02:58.535Z,25.85
2018-06-10T05:05:28.222Z,25.97
2018-06-10T05:07:58.480Z,26.14
2018-06-10T05:13:03.577Z,26.39
2018-06-10T05:15:33.259Z,26.53
2018-06-10T05:18:03.102Z,26.60
2018-06-10T05:20:32.798Z,26.73
2018-06-10T05:23:02.541Z,26.94
2018-06-10T05:25:32.341Z,26.61
2018-06-10T05:28:01.975Z,26.51
2018-06-10T05:30:31.711Z,26.10
2018-06-10T05:33:01.724Z,26.45
2018-06-10T05:35:31.759Z,26.53
2018-06-10T05:38:01.850Z,26.54
2018-06-10T05:40:31.801Z,26.69
2018-06-10T05:43:01.783Z,27.12
2018-06-10T05:45:31.489Z,27.28
2018-06-10T05:48:01.258Z,27.45
2018-06-10T05:53:06.812Z,26.89
2018-06-10T05:55:36.636Z,27.34
2018-06-10T05:58:06.424Z,27.63
2018-06-10T06:00:36.181Z,27.60
2018-06-10T06:03:05.932Z,27.67
2018-06-10T06:08:11.802Z,27.85
2018-06-10T06:10:41.780Z,27.86
2018-06-10T06:13:12.883Z,28.14
2018-06-10T06:15:42.628Z,28.44
2018-06-10T06:18:12.483Z,28.44
2018-06-10T06:20:42.201Z,28.50
2018-06-10T06:23:12.231Z,28.77
2018-06-10T06:25:42.510Z,28.93
2018-06-10T06:28:12.442Z,28.78
2018-06-10T06:30:42.729Z,28.82
2018-06-10T06:33:12.577Z,28.93
2018-06-10T06:35:41.948Z,29.06
2018-06-10T06:38:15.373Z,29.25
2018-06-10T06:40:45.162Z,29.34
2018-06-10T06:43:14.993Z,29.21
2018-06-10T06:45:44.700Z,29.21
2018-06-10T06:48:14.578Z,29.31
2018-06-10T06:50:44.528Z,29.60
2018-06-10T06:53:14.292Z,29.66
2018-06-10T06:55:44.130Z,29.86
2018-06-10T06:58:13.908Z,29.89
2018-06-10T07:00:43.765Z,30.13
2018-06-10T07:03:13.935Z,30.23
2018-06-10T07:05:43.967Z,29.98
2018-06-10T07:08:13.910Z,29.99
2018-06-10T07:10:43.636Z,30.36
2018-06-10T07:13:13.169Z,30.37
2018-06-10T07:15:43.777Z,30.42
2018-06-10T07:18:13.243Z,30.30
2018-06-10T07:20:42.949Z,30.61
2018-06-10T07:23:12.637Z,30.84
2018-06-10T07:25:42.398Z,30.79
2018-06-10T07:28:12.091Z,30.65
2018-06-10T07:30:41.739Z,30.65
2018-06-10T07:33:11.725Z,30.50
2018-06-10T07:35:41.444Z,30.33
2018-06-10T07:38:11.171Z,30.58
2018-06-10T07:40:41.195Z,30.57
2018-06-10T07:43:11.253Z,30.59
2018-06-10T07:45:40.862Z,30.86
2018-06-10T07:48:10.615Z,31.05
2018-06-10T07:50:40.253Z,31.09
2018-06-10T07:53:10.003Z,31.22
2018-06-10T07:55:39.622Z,31.17
2018-06-10T07:58:09.562Z,31.38
2018-06-10T08:00:39.364Z,30.98
2018-06-10T08:03:09.142Z,31.16
2018-06-10T08:05:40.079Z,31.45
2018-06-10T08:08:10.044Z,31.52
2018-06-10T08:10:39.807Z,31.42
2018-06-10T08:13:09.425Z,31.73
2018-06-10T08:15:39.429Z,31.54
2018-06-10T08:18:09.212Z,31.40
2018-06-10T08:20:38.966Z,31.40
2018-06-10T08:23:08.777Z,31.49
2018-06-10T08:25:38.673Z,31.64
2018-06-10T08:28:08.342Z,31.66
2018-06-10T08:30:38.517Z,31.67
2018-06-10T08:33:08.190Z,31.74
2018-06-10T08:35:38.004Z,31.71
2018-06-10T08:38:08.189Z,32.07
2018-06-10T08:40:38.203Z,32.08
2018-06-10T08:43:08.035Z,32.18
2018-06-10T08:45:37.909Z,32.27
2018-06-10T08:48:07.663Z,32.02
2018-06-10T08:50:37.773Z,31.86
2018-06-10T08:53:07.747Z,31.75
2018-06-10T08:55:37.682Z,31.56
2018-06-10T08:58:07.766Z,31.63
2018-06-10T09:00:37.594Z,31.68
2018-06-10T09:03:07.478Z,31.35
2018-06-10T09:05:37.466Z,31.87
2018-06-10T09:08:07.794Z,32.12
2018-06-10T09:10:37.997Z,31.80
2018-06-10T09:13:08.230Z,32.22
2018-06-10T09:15:38.082Z,32.28
2018-06-10T09:18:07.499Z,32.72
2018-06-10T09:20:37.895Z,32.90
2018-06-10T09:23:08.057Z,33.04
2018-06-10T09:25:37.911Z,32.94
2018-06-10T09:28:07.772Z,32.66
2018-06-10T09:30:41.578Z,32.62
2018-06-10T09:33:11.480Z,32.28
2018-06-10T09:35:41.352Z,32.58
2018-06-10T09:38:11.394Z,32.77
2018-06-10T09:40:41.175Z,33.30
2018-06-10T09:43:11.062Z,33.32
2018-06-10T09:45:46.686Z,33.01
2018-06-10T09:48:16.463Z,32.39
2018-06-10T09:50:46.101Z,31.83
2018-06-10T09:53:15.820Z,31.83
2018-06-10T09:55:45.710Z,31.54
2018-06-10T09:58:15.353Z,31.32
2018-06-10T10:00:45.111Z,31.17
2018-06-10T10:03:14.894Z,31.00
2018-06-10T10:05:44.940Z,31.37
2018-06-10T10:08:15.330Z,31.30
2018-06-10T10:10:45.207Z,31.11
2018-06-10T10:13:14.852Z,31.03
2018-06-10T10:15:44.761Z,30.86
2018-06-10T10:18:14.711Z,30.80
2018-06-10T10:20:44.498Z,30.78
2018-06-10T10:23:14.223Z,30.75
2018-06-10T10:25:43.978Z,30.67
2018-06-10T10:28:13.744Z,30.67
2018-06-10T10:30:43.531Z,30.75
2018-06-10T10:33:13.369Z,30.93
2018-06-10T10:35:43.669Z,30.94
2018-06-10T10:38:13.273Z,30.87
2018-06-10T10:40:42.947Z,31.00
2018-06-10T10:45:47.585Z,31.59
2018-06-10T10:48:17.496Z,31.43
2018-06-10T10:50:47.597Z,31.43
2018-06-10T10:53:17.300Z,31.11
2018-06-10T10:55:47.061Z,30.75
2018-06-10T10:58:16.945Z,30.77
2018-06-10T11:00:47.332Z,31.00
2018-06-10T11:03:17.038Z,31.06
2018-06-10T11:05:46.942Z,30.92
2018-06-10T11:08:17.214Z,31.10
2018-06-10T11:10:46.927Z,31.37
2018-06-10T11:13:16.604Z,31.62
2018-06-10T11:15:46.836Z,32.04
2018-06-10T11:18:16.507Z,32.83
2018-06-10T11:20:46.599Z,33.48
2018-06-10T11:23:16.538Z,33.23
2018-06-10T11:25:46.597Z,32.46
2018-06-10T11:28:16.496Z,31.84
2018-06-10T11:30:46.752Z,32.34
2018-06-10T11:33:16.895Z,33.08
2018-06-10T11:35:46.985Z,33.45
2018-06-10T11:38:17.004Z,33.91
2018-06-10T11:40:46.941Z,34.26
2018-06-10T11:43:16.942Z,34.43
2018-06-10T11:45:47.178Z,34.35
2018-06-10T11:48:17.291Z,33.92
2018-06-10T11:50:47.263Z,33.63
2018-06-10T11:53:17.637Z,33.88
2018-06-10T11:55:47.766Z,33.68
2018-06-10T11:58:17.694Z,33.71
2018-06-10T12:00:47.646Z,33.55
2018-06-10T12:03:17.572Z,33.70
2018-06-10T12:05:47.372Z,33.92
2018-06-10T12:08:17.259Z,34.23
2018-06-10T12:10:47.369Z,34.00
2018-06-10T12:13:17.372Z,34.23
2018-06-10T12:15:47.232Z,33.98
2018-06-10T12:18:17.149Z,33.19
2018-06-10T12:20:47.017Z,33.16
2018-06-10T12:23:17.080Z,33.30
2018-06-10T12:25:47.106Z,33.54
2018-06-10T12:28:17.059Z,33.95
2018-06-10T12:30:47.171Z,33.93
2018-06-10T12:33:17.232Z,34.02
2018-06-10T12:35:47.822Z,33.96
2018-06-10T12:38:17.458Z,33.91
2018-06-10T12:40:47.596Z,33.75
2018-06-10T12:43:17.731Z,33.47
2018-06-10T12:45:47.667Z,33.58
2018-06-10T12:48:17.811Z,33.72
2018-06-10T12:50:47.695Z,34.16
2018-06-10T12:53:17.782Z,33.90
2018-06-10T12:55:47.757Z,33.38
2018-06-10T12:58:17.668Z,33.62
2018-06-10T13:00:47.765Z,33.73
2018-06-10T13:03:17.707Z,33.93
2018-06-10T13:05:47.596Z,33.52
2018-06-10T13:08:17.396Z,33.43
2018-06-10T13:10:47.276Z,33.45
2018-06-10T13:13:17.164Z,33.46
2018-06-10T13:15:47.443Z,33.34
2018-06-10T13:18:17.529Z,33.34
2018-06-10T13:20:47.348Z,33.24
2018-06-10T13:23:17.112Z,33.18
2018-06-10T13:25:47.131Z,33.03
2018-06-10T13:28:17.337Z,33.05
2018-06-10T13:30:48.137Z,33.24
2018-06-10T13:33:18.255Z,33.06
2018-06-10T13:35:48.223Z,33.41
2018-06-10T13:38:18.519Z,33.19
2018-06-10T13:40:48.878Z,33.10
2018-06-10T13:43:18.764Z,32.98
2018-06-10T13:45:48.786Z,33.07
2018-06-10T13:48:19.059Z,33.09
2018-06-10T13:50:49.057Z,33.17
2018-06-10T13:55:54.124Z,33.37
2018-06-10T13:58:24.724Z,33.50
2018-06-10T14:03:30.252Z,33.16
2018-06-10T14:05:59.961Z,33.09
2018-06-10T14:08:30.555Z,33.05
2018-06-10T14:11:00.507Z,33.09
2018-06-10T14:13:30.862Z,32.99
2018-06-10T14:16:00.817Z,33.12
2018-06-10T14:18:30.818Z,33.28
2018-06-10T14:21:00.780Z,33.45
2018-06-10T14:26:06.810Z,32.88
2018-06-10T14:28:37.866Z,32.45
2018-06-10T14:31:10.806Z,32.22
2018-06-10T14:33:40.872Z,32.37
2018-06-10T14:36:10.636Z,32.59
2018-06-10T14:38:40.861Z,32.56
2018-06-10T14:43:46.933Z,32.41
2018-06-10T14:46:16.798Z,32.43
2018-06-10T14:48:47.053Z,32.49
2018-06-10T14:51:16.875Z,32.57
2018-06-10T14:53:46.464Z,33.02
2018-06-10T14:56:16.332Z,33.39
2018-06-10T14:58:46.212Z,33.22
2018-06-10T15:01:15.977Z,33.36
2018-06-10T15:03:45.938Z,33.45
2018-06-10T15:06:17.584Z,33.56
2018-06-10T15:08:47.543Z,33.82
2018-06-10T15:11:17.360Z,33.58
2018-06-10T15:13:49.354Z,33.53
2018-06-10T15:16:19.279Z,32.99
2018-06-10T15:18:49.930Z,32.99
2018-06-10T15:21:20.126Z,32.69
2018-06-10T15:23:49.946Z,32.64
2018-06-10T15:26:19.819Z,32.67
2018-06-10T15:28:50.323Z,32.54
2018-06-10T15:31:19.755Z,32.57
2018-06-10T15:33:49.716Z,32.52
2018-06-10T15:36:19.517Z,32.36
2018-06-10T15:38:50.592Z,31.94
2018-06-10T15:41:20.907Z,32.01
2018-06-10T15:43:50.556Z,32.17
2018-06-10T15:46:20.934Z,32.17
2018-06-10T15:48:51.030Z,32.18
2018-06-10T15:51:22.422Z,32.00
2018-06-10T15:53:52.984Z,32.04
2018-06-10T15:56:22.810Z,31.63
2018-06-10T15:58:52.538Z,31.45
2018-06-10T16:01:22.388Z,31.41
2018-06-10T16:03:52.153Z,31.37
2018-06-10T16:06:21.958Z,31.47
2018-06-10T16:08:51.863Z,31.44
2018-06-10T16:11:23.753Z,31.41
2018-06-10T16:13:53.517Z,31.13
2018-06-10T16:16:23.361Z,30.47
2018-06-10T16:18:53.092Z,30.21
2018-06-10T16:21:23.010Z,30.09
2018-06-10T16:23:53.007Z,30.27
2018-06-10T16:26:23.504Z,30.33
2018-06-10T16:28:54.091Z,30.02
2018-06-10T16:31:24.233Z,29.98
2018-06-10T16:33:53.938Z,30.07
2018-06-10T16:36:24.168Z,29.99
2018-06-10T16:38:53.999Z,29.82
2018-06-10T16:41:23.867Z,29.77
2018-06-10T16:43:53.969Z,29.54
2018-06-10T16:46:23.855Z,29.64
2018-06-10T16:48:54.014Z,29.44
2018-06-10T16:51:23.881Z,29.20
2018-06-10T16:53:53.961Z,29.22
2018-06-10T16:56:24.097Z,28.95
2018-06-10T16:58:54.072Z,29.14
2018-06-10T17:01:24.036Z,29.22
2018-06-10T17:03:53.861Z,29.29
2018-06-10T17:06:23.642Z,29.41
2018-06-10T17:08:53.785Z,29.48
2018-06-10T17:11:23.594Z,29.45
2018-06-10T17:13:53.660Z,29.24
2018-06-10T17:16:23.781Z,29.17
2018-06-10T17:24:05.852Z,29.20
2018-06-10T17:26:36.031Z,29.48
2018-06-10T17:29:05.991Z,29.46
2018-06-10T17:31:35.888Z,29.38
2018-06-10T17:34:05.783Z,29.20
2018-06-10T17:39:11.241Z,29.31
2018-06-10T17:41:40.612Z,28.82
2018-06-10T17:44:10.159Z,28.37
2018-06-10T17:46:40.365Z,28.41
2018-06-10T17:49:10.479Z,28.40
2018-06-10T17:54:15.905Z,28.11
2018-06-10T17:56:45.884Z,28.19
2018-06-10T17:59:16.534Z,28.31
2018-06-10T18:01:46.219Z,28.51
2018-06-10T18:04:16.147Z,28.43
2018-06-10T18:06:45.788Z,28.42
2018-06-10T18:09:16.412Z,28.23
2018-06-10T18:11:46.112Z,28.27
2018-06-10T18:14:16.176Z,28.02
2018-06-10T18:16:46.037Z,27.83
2018-06-10T18:19:15.884Z,27.79
2018-06-10T18:21:48.892Z,27.89
2018-06-10T18:24:18.623Z,27.84
2018-06-10T18:26:48.328Z,27.84
2018-06-10T18:29:18.050Z,27.56
2018-06-10T18:31:47.902Z,27.43
2018-06-10T18:34:17.359Z,27.33
2018-06-10T18:36:47.206Z,27.21
2018-06-10T18:39:17.280Z,27.19
2018-06-10T18:41:53.283Z,27.33
2018-06-10T18:44:23.138Z,27.26
2018-06-10T18:46:53.208Z,27.16
2018-06-10T18:49:23.245Z,27.02
2018-06-10T18:51:53.499Z,27.03
2018-06-10T18:54:23.335Z,26.91
2018-06-10T18:56:53.162Z,27.04
2018-06-10T18:59:24.123Z,26.99
2018-06-10T19:01:55.260Z,26.98
2018-06-10T19:04:25.113Z,27.01
2018-06-10T19:06:54.955Z,26.82
2018-06-10T19:12:02.282Z,26.59
2018-06-10T19:14:34.214Z,26.56
2018-06-10T19:19:43.447Z,26.61
2018-06-10T19:22:14.111Z,26.64
2018-06-10T19:24:44.444Z,26.69
2018-06-10T19:27:14.981Z,26.76
2018-06-10T19:29:45.607Z,26.61
2018-06-10T19:32:18.993Z,26.31
2018-06-10T19:34:49.255Z,26.49
2018-06-10T19:37:19.169Z,26.59
2018-06-10T19:39:50.059Z,26.21
2018-06-10T19:42:21.536Z,26.06
2018-06-10T19:44:51.740Z,25.98
2018-06-10T19:47:21.828Z,26.13
2018-06-10T19:49:52.940Z,26.22
2018-06-10T19:52:23.437Z,26.14
2018-06-10T19:54:54.813Z,26.24
2018-06-10T19:57:25.493Z,26.26
2018-06-10T19:59:56.649Z,26.18
2018-06-10T20:02:26.980Z,26.04
2018-06-10T20:04:56.991Z,26.16
2018-06-10T20:07:28.280Z,25.82
2018-06-10T20:10:00.042Z,25.69
2018-06-10T20:12:31.542Z,25.67
2018-06-10T20:17:36.910Z,25.76
2018-06-10T20:20:07.778Z,25.67
2018-06-10T20:22:37.635Z,25.56
2018-06-10T20:25:07.572Z,25.41
2018-06-10T20:27:37.475Z,25.65
2018-06-10T20:32:51.181Z,25.35
2018-06-10T20:35:22.398Z,25.42
2018-06-10T20:37:52.090Z,25.52
2018-06-10T20:40:22.658Z,25.52
2018-06-10T20:42:53.235Z,25.34
2018-06-10T20:45:23.486Z,25.42
2018-06-10T20:47:53.562Z,25.43
2018-06-10T20:50:23.652Z,25.48
2018-06-10T20:52:55.380Z,25.45
2018-06-10T20:55:27.225Z,25.28
2018-06-10T20:57:56.871Z,25.03
2018-06-10T21:00:27.490Z,24.73
2018-06-10T21:02:57.525Z,24.67
2018-06-10T21:05:27.705Z,24.65
2018-06-10T21:08:18.492Z,24.81
2018-06-10T21:10:48.204Z,25.15
2018-06-10T21:13:18.339Z,25.13
2018-06-10T21:15:50.717Z,25.05
2018-06-10T21:20:57.304Z,24.90
2018-06-10T21:23:28.722Z,24.84
2018-06-10T21:25:58.629Z,24.32
2018-06-10T21:28:28.351Z,24.38
2018-06-10T21:31:05.943Z,24.61
2018-06-10T21:33:35.777Z,24.54
2018-06-10T21:36:06.937Z,24.76
2018-06-10T21:38:37.579Z,24.88
2018-06-10T21:41:07.574Z,24.79
2018-06-10T21:43:38.741Z,24.77
2018-06-10T21:46:09.861Z,24.74
2018-06-10T21:48:40.726Z,24.49
2018-06-10T21:53:51.273Z,24.56
2018-06-10T21:56:23.961Z,24.45
2018-06-10T21:58:54.967Z,24.46
2018-06-10T22:01:25.652Z,24.12
2018-06-10T22:03:55.943Z,23.87
2018-06-10T22:06:26.313Z,23.91
2018-06-10T22:11:32.490Z,24.05
2018-06-10T22:14:02.331Z,23.63
2018-06-10T22:16:32.074Z,23.77
2018-06-10T22:19:02.132Z,23.89
2018-06-10T22:21:32.092Z,24.17
2018-06-10T22:24:01.833Z,24.45
2018-06-10T22:26:32.796Z,24.29
2018-06-10T22:29:02.598Z,24.26
2018-06-10T22:31:34.779Z,24.20
2018-06-10T22:34:04.944Z,23.95
2018-06-10T22:36:34.677Z,23.69
2018-06-10T22:39:06.918Z,23.67
2018-06-10T22:41:53.114Z,23.55
2018-06-10T22:44:28.864Z,23.89
2018-06-10T22:46:59.796Z,23.49
2018-06-10T22:49:30.579Z,23.31
2018-06-10T22:52:00.509Z,23.64
2018-06-10T22:54:40.454Z,23.84
2018-06-10T22:57:11.308Z,23.94
2018-06-10T22:59:42.712Z,23.77
2018-06-10T23:02:13.318Z,23.93
2018-06-10T23:04:43.349Z,23.80
2018-06-10T23:07:13.966Z,23.71
2018-06-10T23:09:44.219Z,23.78
2018-06-10T23:12:14.533Z,23.63
2018-06-10T23:14:44.236Z,23.79
2018-06-10T23:17:14.876Z,23.50
2018-06-10T23:19:44.949Z,23.63
2018-06-10T23:27:26.047Z,23.53
2018-06-10T23:29:55.691Z,23.57
2018-06-10T23:32:35.370Z,23.59
2018-06-10T23:35:05.763Z,23.36
2018-06-10T23:37:35.582Z,23.16
2018-06-10T23:40:05.466Z,23.05
2018-06-10T23:45:11.710Z,22.66
2018-06-10T23:47:42.278Z,22.64
2018-06-10T23:50:12.692Z,22.69
2018-06-10T23:52:43.548Z,23.10
2018-06-10T23:55:13.831Z,23.25
2018-06-10T23:57:43.346Z,23.26
